sensor_id;sensor_type;location;lat;lon;timestamp;P1;durP1;ratioP1;P2;durP2;ratioP2
7571;SDS011;3827;49.928;8.548;2022-08-11T00:01:03;2.65;;;2.45;;
7571;SDS011;3827;49.928;8.548;2022-08-11T00:03:31;3.00;;;2.72;;
7571;SDS011;3827;49.928;8.548;2022-08-11T00:05:59;3.10;;;2.78;;
7571;SDS011;3827;49.928;8.548;2022-08-11T00:08:28;2.47;;;2.27;;
7571;SDS011;3827;49.928;8.548;2022-08-11T00:10:59;5.00;;;2.58;;
7571;SDS011;3827;49.928;8.548;2022-08-11T00:13:30;3.67;;;2.50;;
7571;SDS011;3827;49.928;8.548;2022-08-11T00:15:59;2.80;;;2.57;;
7571;SDS011;3827;49.928;8.548;2022-08-11T00:18:27;3.00;;;2.43;;
7571;SDS011;3827;49.928;8.548;2022-08-11T00:20:56;2.63;;;2.43;;
7571;SDS011;3827;49.928;8.548;2022-08-11T00:23:25;3.30;;;3.00;;
7571;SDS011;3827;49.928;8.548;2022-08-11T00:25:52;3.78;;;2.65;;
7571;SDS011;3827;49.928;8.548;2022-08-11T00:28:28;3.22;;;2.70;;
7571;SDS011;3827;49.928;8.548;2022-08-11T00:30:56;3.80;;;2.65;;
7571;SDS011;3827;49.928;8.548;2022-08-11T00:33:27;2.72;;;2.53;;
7571;SDS011;3827;49.928;8.548;2022-08-11T00:35:59;4.40;;;2.83;;
7571;SDS011;3827;49.928;8.548;2022-08-11T00:38:28;2.83;;;2.58;;
7571;SDS011;3827;49.928;8.548;2022-08-11T00:41:00;2.80;;;2.60;;
7571;SDS011;3827;49.928;8.548;2022-08-11T00:43:46;3.97;;;2.88;;
7571;SDS011;3827;49.928;8.548;2022-08-11T00:46:28;3.30;;;2.80;;
7571;SDS011;3827;49.928;8.548;2022-08-11T00:49:08;3.00;;;2.70;;
7571;SDS011;3827;49.928;8.548;2022-08-11T00:51:52;3.30;;;2.67;;
7571;SDS011;3827;49.928;8.548;2022-08-11T00:54:30;2.85;;;2.50;;
7571;SDS011;3827;49.928;8.548;2022-08-11T00:57:33;2.80;;;2.60;;
7571;SDS011;3827;49.928;8.548;2022-08-11T01:00:20;2.90;;;2.63;;
7571;SDS011;3827;49.928;8.548;2022-08-11T01:03:09;2.75;;;2.55;;
7571;SDS011;3827;49.928;8.548;2022-08-11T01:06:00;2.78;;;2.58;;
7571;SDS011;3827;49.928;8.548;2022-08-11T01:11:45;3.00;;;2.70;;
7571;SDS011;3827;49.928;8.548;2022-08-11T01:30:02;3.53;;;2.85;;
7571;SDS011;3827;49.928;8.548;2022-08-11T01:33:01;3.30;;;2.78;;
7571;SDS011;3827;49.928;8.548;2022-08-11T01:45:56;2.80;;;2.60;;
7571;SDS011;3827;49.928;8.548;2022-08-11T01:48:31;3.97;;;2.70;;
7571;SDS011;3827;49.928;8.548;2022-08-11T01:51:10;2.87;;;2.60;;
7571;SDS011;3827;49.928;8.548;2022-08-11T01:53:49;3.33;;;2.83;;
7571;SDS011;3827;49.928;8.548;2022-08-11T01:56:28;3.30;;;2.75;;
7571;SDS011;3827;49.928;8.548;2022-08-11T01:59:14;4.07;;;2.90;;
7571;SDS011;3827;49.928;8.548;2022-08-11T02:01:51;3.30;;;2.72;;
7571;SDS011;3827;49.928;8.548;2022-08-11T02:04:28;3.10;;;2.80;;
7571;SDS011;3827;49.928;8.548;2022-08-11T02:07:03;3.35;;;3.00;;
7571;SDS011;3827;49.928;8.548;2022-08-11T02:09:43;4.15;;;2.90;;
7571;SDS011;3827;49.928;8.548;2022-08-11T02:12:35;4.80;;;2.80;;
7571;SDS011;3827;49.928;8.548;2022-08-11T02:15:11;2.80;;;2.60;;
7571;SDS011;3827;49.928;8.548;2022-08-11T02:17:49;3.22;;;2.60;;
7571;SDS011;3827;49.928;8.548;2022-08-11T02:20:25;3.03;;;2.65;;
7571;SDS011;3827;49.928;8.548;2022-08-11T02:23:21;3.43;;;2.87;;
7571;SDS011;3827;49.928;8.548;2022-08-11T02:26:11;3.10;;;2.80;;
7571;SDS011;3827;49.928;8.548;2022-08-11T02:28:59;2.78;;;2.58;;
7571;SDS011;3827;49.928;8.548;2022-08-11T02:31:40;2.92;;;2.72;;
7571;SDS011;3827;49.928;8.548;2022-08-11T02:34:36;3.30;;;3.03;;
7571;SDS011;3827;49.928;8.548;2022-08-11T02:37:12;3.22;;;2.85;;
7571;SDS011;3827;49.928;8.548;2022-08-11T02:39:45;3.17;;;2.87;;
7571;SDS011;3827;49.928;8.548;2022-08-11T02:42:22;3.92;;;2.95;;
7571;SDS011;3827;49.928;8.548;2022-08-11T02:45:04;4.15;;;3.00;;
7571;SDS011;3827;49.928;8.548;2022-08-11T02:48:07;3.10;;;2.80;;
7571;SDS011;3827;49.928;8.548;2022-08-11T02:51:03;4.65;;;2.70;;
7571;SDS011;3827;49.928;8.548;2022-08-11T02:53:38;3.50;;;3.20;;
7571;SDS011;3827;49.928;8.548;2022-08-11T02:56:13;4.45;;;2.85;;
7571;SDS011;3827;49.928;8.548;2022-08-11T02:58:51;2.97;;;2.77;;
7571;SDS011;3827;49.928;8.548;2022-08-11T03:01:44;2.63;;;2.42;;
7571;SDS011;3827;49.928;8.548;2022-08-11T03:04:19;3.25;;;2.88;;
7571;SDS011;3827;49.928;8.548;2022-08-11T03:06:58;3.03;;;2.75;;
7571;SDS011;3827;49.928;8.548;2022-08-11T03:09:39;3.72;;;2.90;;
7571;SDS011;3827;49.928;8.548;2022-08-11T03:12:12;3.20;;;2.90;;
7571;SDS011;3827;49.928;8.548;2022-08-11T03:15:06;3.00;;;2.78;;
7571;SDS011;3827;49.928;8.548;2022-08-11T03:17:58;3.85;;;2.83;;
7571;SDS011;3827;49.928;8.548;2022-08-11T03:20:31;3.95;;;2.90;;
7571;SDS011;3827;49.928;8.548;2022-08-11T03:23:06;4.43;;;3.20;;
7571;SDS011;3827;49.928;8.548;2022-08-11T03:25:43;6.38;;;2.90;;
7571;SDS011;3827;49.928;8.548;2022-08-11T03:28:20;3.35;;;2.67;;
7571;SDS011;3827;49.928;8.548;2022-08-11T03:30:56;4.93;;;3.00;;
7571;SDS011;3827;49.928;8.548;2022-08-11T03:33:37;2.97;;;2.78;;
7571;SDS011;3827;49.928;8.548;2022-08-11T03:36:37;3.97;;;3.20;;
7571;SDS011;3827;49.928;8.548;2022-08-11T03:39:28;3.20;;;2.90;;
7571;SDS011;3827;49.928;8.548;2022-08-11T03:42:09;3.75;;;3.40;;
7571;SDS011;3827;49.928;8.548;2022-08-11T03:44:46;4.05;;;3.00;;
7571;SDS011;3827;49.928;8.548;2022-08-11T03:47:27;3.72;;;3.10;;
7571;SDS011;3827;49.928;8.548;2022-08-11T03:50:19;4.60;;;3.00;;
7571;SDS011;3827;49.928;8.548;2022-08-11T03:52:55;2.92;;;2.72;;
7571;SDS011;3827;49.928;8.548;2022-08-11T03:55:35;3.08;;;2.88;;
7571;SDS011;3827;49.928;8.548;2022-08-11T03:58:29;3.40;;;2.75;;
7571;SDS011;3827;49.928;8.548;2022-08-11T04:01:26;3.92;;;2.90;;
7571;SDS011;3827;49.928;8.548;2022-08-11T04:04:15;3.88;;;2.97;;
7571;SDS011;3827;49.928;8.548;2022-08-11T04:16:42;4.57;;;2.75;;
7571;SDS011;3827;49.928;8.548;2022-08-11T04:25:31;3.08;;;2.78;;
7571;SDS011;3827;49.928;8.548;2022-08-11T04:28:22;6.70;;;3.00;;
7571;SDS011;3827;49.928;8.548;2022-08-11T04:31:08;4.43;;;3.08;;
7571;SDS011;3827;49.928;8.548;2022-08-11T04:33:57;3.42;;;2.67;;
7571;SDS011;3827;49.928;8.548;2022-08-11T04:36:46;3.70;;;3.00;;
7571;SDS011;3827;49.928;8.548;2022-08-11T04:39:58;3.60;;;2.75;;
7571;SDS011;3827;49.928;8.548;2022-08-11T04:43:01;4.10;;;2.80;;
7571;SDS011;3827;49.928;8.548;2022-08-11T04:46:07;4.10;;;3.00;;
7571;SDS011;3827;49.928;8.548;2022-08-11T04:52:15;4.30;;;2.90;;
7571;SDS011;3827;49.928;8.548;2022-08-11T04:55:21;4.72;;;3.15;;
7571;SDS011;3827;49.928;8.548;2022-08-11T04:58:29;3.30;;;2.97;;
7571;SDS011;3827;49.928;8.548;2022-08-11T05:01:33;6.88;;;3.22;;
7571;SDS011;3827;49.928;8.548;2022-08-11T05:04:15;3.20;;;2.97;;
7571;SDS011;3827;49.928;8.548;2022-08-11T05:07:39;3.40;;;3.10;;
7571;SDS011;3827;49.928;8.548;2022-08-11T05:10:33;4.18;;;2.80;;
7571;SDS011;3827;49.928;8.548;2022-08-11T05:13:21;3.95;;;2.85;;
7571;SDS011;3827;49.928;8.548;2022-08-11T05:16:12;4.72;;;2.92;;
7571;SDS011;3827;49.928;8.548;2022-08-11T05:19:01;3.03;;;2.72;;
7571;SDS011;3827;49.928;8.548;2022-08-11T05:21:51;2.95;;;2.50;;
7571;SDS011;3827;49.928;8.548;2022-08-11T05:24:40;3.70;;;2.85;;
7571;SDS011;3827;49.928;8.548;2022-08-11T05:27:32;2.83;;;2.63;;
7571;SDS011;3827;49.928;8.548;2022-08-11T05:30:20;4.85;;;2.95;;
7571;SDS011;3827;49.928;8.548;2022-08-11T05:33:13;2.95;;;2.72;;
7571;SDS011;3827;49.928;8.548;2022-08-11T05:36:05;3.70;;;3.00;;
7571;SDS011;3827;49.928;8.548;2022-08-11T05:38:37;4.60;;;2.80;;
7571;SDS011;3827;49.928;8.548;2022-08-11T05:41:23;3.00;;;2.70;;
7571;SDS011;3827;49.928;8.548;2022-08-11T05:44:09;4.07;;;2.80;;
7571;SDS011;3827;49.928;8.548;2022-08-11T05:47:01;4.18;;;2.90;;
7571;SDS011;3827;49.928;8.548;2022-08-11T05:49:49;3.13;;;2.80;;
7571;SDS011;3827;49.928;8.548;2022-08-11T05:52:35;4.05;;;2.88;;
7571;SDS011;3827;49.928;8.548;2022-08-11T05:55:20;3.58;;;2.42;;
7571;SDS011;3827;49.928;8.548;2022-08-11T05:58:07;2.90;;;2.63;;
7571;SDS011;3827;49.928;8.548;2022-08-11T06:00:40;5.43;;;2.97;;
7571;SDS011;3827;49.928;8.548;2022-08-11T06:03:07;3.72;;;3.00;;
7571;SDS011;3827;49.928;8.548;2022-08-11T06:05:37;4.57;;;3.00;;
7571;SDS011;3827;49.928;8.548;2022-08-11T06:08:05;4.20;;;2.63;;
7571;SDS011;3827;49.928;8.548;2022-08-11T06:10:34;5.47;;;2.80;;
7571;SDS011;3827;49.928;8.548;2022-08-11T06:13:03;3.10;;;2.80;;
7571;SDS011;3827;49.928;8.548;2022-08-11T06:15:33;5.17;;;2.63;;
7571;SDS011;3827;49.928;8.548;2022-08-11T06:18:09;3.72;;;2.60;;
7571;SDS011;3827;49.928;8.548;2022-08-11T06:20:44;4.27;;;2.67;;
7571;SDS011;3827;49.928;8.548;2022-08-11T06:23:12;5.32;;;2.70;;
7571;SDS011;3827;49.928;8.548;2022-08-11T06:25:42;4.75;;;2.83;;
7571;SDS011;3827;49.928;8.548;2022-08-11T06:28:10;3.10;;;2.55;;
7571;SDS011;3827;49.928;8.548;2022-08-11T06:30:39;4.97;;;2.73;;
7571;SDS011;3827;49.928;8.548;2022-08-11T06:33:09;4.00;;;2.85;;
7571;SDS011;3827;49.928;8.548;2022-08-11T06:35:45;4.10;;;2.85;;
7571;SDS011;3827;49.928;8.548;2022-08-11T06:38:22;3.10;;;2.83;;
7571;SDS011;3827;49.928;8.548;2022-08-11T06:41:03;4.50;;;2.70;;
7571;SDS011;3827;49.928;8.548;2022-08-11T06:44:08;3.92;;;2.65;;
7571;SDS011;3827;49.928;8.548;2022-08-11T06:46:42;3.60;;;2.40;;
7571;SDS011;3827;49.928;8.548;2022-08-11T06:49:12;4.95;;;2.88;;
7571;SDS011;3827;49.928;8.548;2022-08-11T06:51:57;3.28;;;2.63;;
7571;SDS011;3827;49.928;8.548;2022-08-11T06:54:26;3.78;;;2.70;;
7571;SDS011;3827;49.928;8.548;2022-08-11T06:56:55;2.75;;;2.47;;
7571;SDS011;3827;49.928;8.548;2022-08-11T06:59:41;4.15;;;2.50;;
7571;SDS011;3827;49.928;8.548;2022-08-11T07:02:29;3.42;;;2.40;;
7571;SDS011;3827;49.928;8.548;2022-08-11T07:04:59;3.95;;;2.75;;
7571;SDS011;3827;49.928;8.548;2022-08-11T07:07:57;4.70;;;2.85;;
7571;SDS011;3827;49.928;8.548;2022-08-11T07:11:00;4.32;;;2.78;;
7571;SDS011;3827;49.928;8.548;2022-08-11T07:14:26;2.60;;;2.22;;
7571;SDS011;3827;49.928;8.548;2022-08-11T07:17:15;5.35;;;2.70;;
7571;SDS011;3827;49.928;8.548;2022-08-11T07:19:46;5.32;;;2.72;;
7571;SDS011;3827;49.928;8.548;2022-08-11T07:22:35;2.60;;;2.40;;
7571;SDS011;3827;49.928;8.548;2022-08-11T07:25:30;4.35;;;2.30;;
7571;SDS011;3827;49.928;8.548;2022-08-11T07:28:16;7.18;;;2.70;;
7571;SDS011;3827;49.928;8.548;2022-08-11T07:31:06;6.10;;;2.53;;
7571;SDS011;3827;49.928;8.548;2022-08-11T07:33:38;2.30;;;2.10;;
7571;SDS011;3827;49.928;8.548;2022-08-11T07:36:09;3.47;;;2.20;;
7571;SDS011;3827;49.928;8.548;2022-08-11T07:38:38;2.75;;;2.40;;
7571;SDS011;3827;49.928;8.548;2022-08-11T07:41:11;4.28;;;2.70;;
7571;SDS011;3827;49.928;8.548;2022-08-11T07:43:40;2.30;;;2.20;;
7571;SDS011;3827;49.928;8.548;2022-08-11T07:46:13;3.30;;;2.40;;
7571;SDS011;3827;49.928;8.548;2022-08-11T07:49:05;3.37;;;2.40;;
7571;SDS011;3827;49.928;8.548;2022-08-11T07:51:52;2.63;;;2.35;;
7571;SDS011;3827;49.928;8.548;2022-08-11T07:54:37;2.50;;;2.30;;
7571;SDS011;3827;49.928;8.548;2022-08-11T07:57:08;3.58;;;2.50;;
7571;SDS011;3827;49.928;8.548;2022-08-11T07:59:52;3.05;;;2.25;;
7571;SDS011;3827;49.928;8.548;2022-08-11T08:02:39;2.72;;;2.20;;
7571;SDS011;3827;49.928;8.548;2022-08-11T08:05:25;2.67;;;2.28;;
7571;SDS011;3827;49.928;8.548;2022-08-11T08:08:12;3.75;;;2.30;;
7571;SDS011;3827;49.928;8.548;2022-08-11T08:10:58;3.20;;;2.22;;
7571;SDS011;3827;49.928;8.548;2022-08-11T08:13:44;3.83;;;2.35;;
7571;SDS011;3827;49.928;8.548;2022-08-11T08:16:29;2.85;;;2.55;;
7571;SDS011;3827;49.928;8.548;2022-08-11T08:19:15;3.80;;;2.53;;
7571;SDS011;3827;49.928;8.548;2022-08-11T08:21:44;3.90;;;2.50;;
7571;SDS011;3827;49.928;8.548;2022-08-11T08:24:13;4.47;;;2.53;;
7571;SDS011;3827;49.928;8.548;2022-08-11T08:26:41;4.68;;;2.35;;
7571;SDS011;3827;49.928;8.548;2022-08-11T08:29:25;4.28;;;2.25;;
7571;SDS011;3827;49.928;8.548;2022-08-11T08:32:11;2.33;;;2.13;;
7571;SDS011;3827;49.928;8.548;2022-08-11T08:34:40;3.70;;;2.40;;
7571;SDS011;3827;49.928;8.548;2022-08-11T08:37:08;4.00;;;2.40;;
7571;SDS011;3827;49.928;8.548;2022-08-11T08:39:35;2.65;;;2.22;;
7571;SDS011;3827;49.928;8.548;2022-08-11T08:42:04;4.50;;;2.45;;
7571;SDS011;3827;49.928;8.548;2022-08-11T08:44:38;2.95;;;2.05;;
7571;SDS011;3827;49.928;8.548;2022-08-11T08:47:08;3.67;;;2.47;;
7571;SDS011;3827;49.928;8.548;2022-08-11T08:49:40;3.22;;;2.47;;
7571;SDS011;3827;49.928;8.548;2022-08-11T08:52:13;4.20;;;2.15;;
7571;SDS011;3827;49.928;8.548;2022-08-11T08:54:43;2.92;;;1.98;;
7571;SDS011;3827;49.928;8.548;2022-08-11T08:57:13;3.92;;;2.20;;
7571;SDS011;3827;49.928;8.548;2022-08-11T08:59:46;3.35;;;2.15;;
7571;SDS011;3827;49.928;8.548;2022-08-11T09:02:14;2.53;;;2.33;;
7571;SDS011;3827;49.928;8.548;2022-08-11T09:04:44;2.03;;;1.92;;
7571;SDS011;3827;49.928;8.548;2022-08-11T09:07:13;2.42;;;2.10;;
7571;SDS011;3827;49.928;8.548;2022-08-11T09:09:42;3.70;;;2.30;;
7571;SDS011;3827;49.928;8.548;2022-08-11T09:12:10;3.70;;;2.40;;
7571;SDS011;3827;49.928;8.548;2022-08-11T09:14:38;3.55;;;2.20;;
7571;SDS011;3827;49.928;8.548;2022-08-11T09:17:26;4.10;;;2.40;;
7571;SDS011;3827;49.928;8.548;2022-08-11T09:19:55;3.97;;;2.00;;
7571;SDS011;3827;49.928;8.548;2022-08-11T09:22:25;3.20;;;1.90;;
7571;SDS011;3827;49.928;8.548;2022-08-11T09:25:10;3.55;;;1.90;;
7571;SDS011;3827;49.928;8.548;2022-08-11T09:27:55;2.30;;;2.10;;
7571;SDS011;3827;49.928;8.548;2022-08-11T09:30:23;2.55;;;2.00;;
7571;SDS011;3827;49.928;8.548;2022-08-11T09:32:53;2.15;;;1.88;;
7571;SDS011;3827;49.928;8.548;2022-08-11T09:35:22;3.03;;;2.33;;
7571;SDS011;3827;49.928;8.548;2022-08-11T09:37:51;2.03;;;1.80;;
7571;SDS011;3827;49.928;8.548;2022-08-11T09:40:37;2.20;;;1.80;;
7571;SDS011;3827;49.928;8.548;2022-08-11T09:43:05;3.22;;;1.90;;
7571;SDS011;3827;49.928;8.548;2022-08-11T09:45:52;3.40;;;2.03;;
7571;SDS011;3827;49.928;8.548;2022-08-11T09:48:24;2.60;;;1.70;;
7571;SDS011;3827;49.928;8.548;2022-08-11T09:50:53;2.75;;;1.85;;
7571;SDS011;3827;49.928;8.548;2022-08-11T09:53:22;2.85;;;1.92;;
7571;SDS011;3827;49.928;8.548;2022-08-11T09:55:50;6.78;;;2.20;;
7571;SDS011;3827;49.928;8.548;2022-08-11T09:58:18;3.75;;;2.15;;
7571;SDS011;3827;49.928;8.548;2022-08-11T10:00:47;1.98;;;1.88;;
7571;SDS011;3827;49.928;8.548;2022-08-11T10:03:15;3.15;;;2.00;;
7571;SDS011;3827;49.928;8.548;2022-08-11T10:05:46;2.55;;;1.83;;
7571;SDS011;3827;49.928;8.548;2022-08-11T10:08:45;1.95;;;1.80;;
7571;SDS011;3827;49.928;8.548;2022-08-11T10:11:14;2.17;;;1.90;;
7571;SDS011;3827;49.928;8.548;2022-08-11T10:13:46;3.00;;;1.70;;
7571;SDS011;3827;49.928;8.548;2022-08-11T10:16:36;3.23;;;1.90;;
7571;SDS011;3827;49.928;8.548;2022-08-11T10:19:06;1.98;;;1.70;;
7571;SDS011;3827;49.928;8.548;2022-08-11T10:21:36;3.17;;;2.07;;
7571;SDS011;3827;49.928;8.548;2022-08-11T10:24:06;3.97;;;1.90;;
7571;SDS011;3827;49.928;8.548;2022-08-11T10:26:53;3.40;;;2.00;;
7571;SDS011;3827;49.928;8.548;2022-08-11T10:29:23;3.45;;;1.90;;
7571;SDS011;3827;49.928;8.548;2022-08-11T10:32:09;2.83;;;2.10;;
7571;SDS011;3827;49.928;8.548;2022-08-11T10:34:55;2.45;;;2.00;;
7571;SDS011;3827;49.928;8.548;2022-08-11T10:37:27;2.88;;;2.10;;
7571;SDS011;3827;49.928;8.548;2022-08-11T10:40:01;2.10;;;1.90;;
7571;SDS011;3827;49.928;8.548;2022-08-11T10:42:30;3.08;;;2.10;;
7571;SDS011;3827;49.928;8.548;2022-08-11T10:45:15;2.42;;;2.08;;
7571;SDS011;3827;49.928;8.548;2022-08-11T10:48:01;1.83;;;1.73;;
7571;SDS011;3827;49.928;8.548;2022-08-11T10:50:31;2.13;;;1.92;;
7571;SDS011;3827;49.928;8.548;2022-08-11T10:53:17;3.83;;;2.10;;
7571;SDS011;3827;49.928;8.548;2022-08-11T10:56:03;2.15;;;1.70;;
7571;SDS011;3827;49.928;8.548;2022-08-11T10:58:48;2.03;;;1.92;;
7571;SDS011;3827;49.928;8.548;2022-08-11T11:01:22;1.83;;;1.70;;
7571;SDS011;3827;49.928;8.548;2022-08-11T11:03:53;1.98;;;1.77;;
7571;SDS011;3827;49.928;8.548;2022-08-11T11:06:26;2.85;;;2.10;;
7571;SDS011;3827;49.928;8.548;2022-08-11T11:09:01;3.13;;;1.70;;
7571;SDS011;3827;49.928;8.548;2022-08-11T11:11:33;2.58;;;1.98;;
7571;SDS011;3827;49.928;8.548;2022-08-11T11:14:21;3.42;;;1.90;;
7571;SDS011;3827;49.928;8.548;2022-08-11T11:17:09;3.55;;;2.28;;
7571;SDS011;3827;49.928;8.548;2022-08-11T11:19:56;3.90;;;1.90;;
7571;SDS011;3827;49.928;8.548;2022-08-11T11:22:25;5.03;;;2.17;;
7571;SDS011;3827;49.928;8.548;2022-08-11T11:25:31;2.78;;;2.03;;
7571;SDS011;3827;49.928;8.548;2022-08-11T11:28:11;2.40;;;2.03;;
7571;SDS011;3827;49.928;8.548;2022-08-11T11:30:54;2.50;;;2.05;;
7571;SDS011;3827;49.928;8.548;2022-08-11T11:33:35;2.45;;;2.10;;
7571;SDS011;3827;49.928;8.548;2022-08-11T11:36:14;3.70;;;2.20;;
7571;SDS011;3827;49.928;8.548;2022-08-11T11:38:48;4.32;;;2.30;;
7571;SDS011;3827;49.928;8.548;2022-08-11T11:41:17;3.67;;;2.10;;
7571;SDS011;3827;49.928;8.548;2022-08-11T11:43:50;3.47;;;2.20;;
7571;SDS011;3827;49.928;8.548;2022-08-11T11:46:18;4.00;;;2.10;;
7571;SDS011;3827;49.928;8.548;2022-08-11T11:48:45;2.10;;;1.90;;
7571;SDS011;3827;49.928;8.548;2022-08-11T11:51:13;2.22;;;2.05;;
7571;SDS011;3827;49.928;8.548;2022-08-11T11:53:41;2.63;;;2.00;;
7571;SDS011;3827;49.928;8.548;2022-08-11T11:56:10;3.60;;;2.20;;
7571;SDS011;3827;49.928;8.548;2022-08-11T11:58:38;3.20;;;2.00;;
7571;SDS011;3827;49.928;8.548;2022-08-11T12:01:24;2.92;;;2.20;;
7571;SDS011;3827;49.928;8.548;2022-08-11T12:03:52;2.75;;;1.98;;
7571;SDS011;3827;49.928;8.548;2022-08-11T12:06:21;3.22;;;2.17;;
7571;SDS011;3827;49.928;8.548;2022-08-11T12:08:49;3.30;;;2.17;;
7571;SDS011;3827;49.928;8.548;2022-08-11T12:11:21;2.67;;;2.00;;
7571;SDS011;3827;49.928;8.548;2022-08-11T12:14:09;3.20;;;2.10;;
7571;SDS011;3827;49.928;8.548;2022-08-11T12:16:37;3.20;;;2.20;;
7571;SDS011;3827;49.928;8.548;2022-08-11T12:19:06;3.08;;;2.33;;
7571;SDS011;3827;49.928;8.548;2022-08-11T12:21:37;3.70;;;2.30;;
7571;SDS011;3827;49.928;8.548;2022-08-11T12:24:24;2.20;;;1.93;;
7571;SDS011;3827;49.928;8.548;2022-08-11T12:27:09;3.60;;;2.50;;
7571;SDS011;3827;49.928;8.548;2022-08-11T12:29:49;2.55;;;2.35;;
7571;SDS011;3827;49.928;8.548;2022-08-11T12:32:24;3.10;;;2.17;;
7571;SDS011;3827;49.928;8.548;2022-08-11T12:34:56;2.20;;;1.95;;
7571;SDS011;3827;49.928;8.548;2022-08-11T12:37:26;3.13;;;2.13;;
7571;SDS011;3827;49.928;8.548;2022-08-11T12:39:57;4.57;;;2.17;;
7571;SDS011;3827;49.928;8.548;2022-08-11T12:42:46;3.33;;;2.30;;
7571;SDS011;3827;49.928;8.548;2022-08-11T12:45:33;4.33;;;2.40;;
7571;SDS011;3827;49.928;8.548;2022-08-11T12:48:03;2.55;;;2.10;;
7571;SDS011;3827;49.928;8.548;2022-08-11T12:50:51;2.53;;;2.10;;
7571;SDS011;3827;49.928;8.548;2022-08-11T12:53:41;2.88;;;2.10;;
7571;SDS011;3827;49.928;8.548;2022-08-11T12:56:18;4.75;;;2.20;;
7571;SDS011;3827;49.928;8.548;2022-08-11T12:59:03;3.70;;;2.10;;
7571;SDS011;3827;49.928;8.548;2022-08-11T13:01:50;2.30;;;2.10;;
7571;SDS011;3827;49.928;8.548;2022-08-11T13:04:35;6.70;;;2.10;;
7571;SDS011;3827;49.928;8.548;2022-08-11T13:07:20;3.23;;;2.10;;
7571;SDS011;3827;49.928;8.548;2022-08-11T13:09:47;2.50;;;2.10;;
7571;SDS011;3827;49.928;8.548;2022-08-11T13:12:15;3.30;;;2.10;;
7571;SDS011;3827;49.928;8.548;2022-08-11T13:15:00;3.58;;;2.20;;
7571;SDS011;3827;49.928;8.548;2022-08-11T13:17:29;2.30;;;2.10;;
7571;SDS011;3827;49.928;8.548;2022-08-11T13:19:58;3.15;;;2.10;;
7571;SDS011;3827;49.928;8.548;2022-08-11T13:22:27;2.40;;;2.20;;
7571;SDS011;3827;49.928;8.548;2022-08-11T13:24:55;2.47;;;2.15;;
7571;SDS011;3827;49.928;8.548;2022-08-11T13:27:23;2.50;;;2.30;;
7571;SDS011;3827;49.928;8.548;2022-08-11T13:29:50;2.95;;;2.28;;
7571;SDS011;3827;49.928;8.548;2022-08-11T13:32:41;5.15;;;2.60;;
7571;SDS011;3827;49.928;8.548;2022-08-11T13:35:09;2.22;;;2.03;;
7571;SDS011;3827;49.928;8.548;2022-08-11T13:37:39;2.60;;;2.30;;
7571;SDS011;3827;49.928;8.548;2022-08-11T13:40:07;4.22;;;2.20;;
7571;SDS011;3827;49.928;8.548;2022-08-11T13:42:36;2.80;;;2.22;;
7571;SDS011;3827;49.928;8.548;2022-08-11T13:45:04;2.38;;;2.17;;
7571;SDS011;3827;49.928;8.548;2022-08-11T13:47:33;4.00;;;2.30;;
7571;SDS011;3827;49.928;8.548;2022-08-11T13:50:03;4.18;;;2.20;;
7571;SDS011;3827;49.928;8.548;2022-08-11T13:52:32;4.68;;;2.15;;
7571;SDS011;3827;49.928;8.548;2022-08-11T13:55:01;2.33;;;2.00;;
7571;SDS011;3827;49.928;8.548;2022-08-11T13:57:29;2.95;;;1.88;;
7571;SDS011;3827;49.928;8.548;2022-08-11T13:59:59;2.60;;;1.92;;
7571;SDS011;3827;49.928;8.548;2022-08-11T14:02:35;2.40;;;1.90;;
7571;SDS011;3827;49.928;8.548;2022-08-11T14:05:09;4.60;;;1.90;;
7571;SDS011;3827;49.928;8.548;2022-08-11T14:07:41;3.90;;;2.20;;
7571;SDS011;3827;49.928;8.548;2022-08-11T14:10:12;3.55;;;2.05;;
7571;SDS011;3827;49.928;8.548;2022-08-11T14:12:42;2.92;;;1.92;;
7571;SDS011;3827;49.928;8.548;2022-08-11T14:15:33;3.03;;;1.83;;
7571;SDS011;3827;49.928;8.548;2022-08-11T14:18:02;3.17;;;2.00;;
7571;SDS011;3827;49.928;8.548;2022-08-11T14:20:34;4.20;;;1.85;;
7571;SDS011;3827;49.928;8.548;2022-08-11T14:23:22;2.40;;;1.80;;
7571;SDS011;3827;49.928;8.548;2022-08-11T14:25:53;3.30;;;2.00;;
7571;SDS011;3827;49.928;8.548;2022-08-11T14:28:38;2.08;;;1.85;;
7571;SDS011;3827;49.928;8.548;2022-08-11T14:31:06;3.45;;;1.92;;
7571;SDS011;3827;49.928;8.548;2022-08-11T14:33:34;3.05;;;2.00;;
7571;SDS011;3827;49.928;8.548;2022-08-11T14:36:03;2.78;;;2.00;;
7571;SDS011;3827;49.928;8.548;2022-08-11T14:38:32;2.03;;;1.90;;
7571;SDS011;3827;49.928;8.548;2022-08-11T14:40:59;3.70;;;2.00;;
7571;SDS011;3827;49.928;8.548;2022-08-11T14:43:45;3.20;;;2.00;;
7571;SDS011;3827;49.928;8.548;2022-08-11T14:46:30;2.30;;;2.10;;
7571;SDS011;3827;49.928;8.548;2022-08-11T14:49:16;2.20;;;2.00;;
7571;SDS011;3827;49.928;8.548;2022-08-11T14:51:45;2.67;;;2.20;;
7571;SDS011;3827;49.928;8.548;2022-08-11T14:54:13;2.90;;;2.20;;
7571;SDS011;3827;49.928;8.548;2022-08-11T14:56:58;2.55;;;2.10;;
7571;SDS011;3827;49.928;8.548;2022-08-11T14:59:27;2.10;;;1.90;;
7571;SDS011;3827;49.928;8.548;2022-08-11T15:01:54;2.55;;;1.65;;
7571;SDS011;3827;49.928;8.548;2022-08-11T15:04:39;3.13;;;1.80;;
7571;SDS011;3827;49.928;8.548;2022-08-11T15:07:07;1.67;;;1.58;;
7571;SDS011;3827;49.928;8.548;2022-08-11T15:09:35;3.67;;;1.85;;
7571;SDS011;3827;49.928;8.548;2022-08-11T15:12:04;3.67;;;1.95;;
7571;SDS011;3827;49.928;8.548;2022-08-11T15:14:40;3.25;;;2.30;;
7571;SDS011;3827;49.928;8.548;2022-08-11T15:17:25;4.00;;;2.85;;
7571;SDS011;3827;49.928;8.548;2022-08-11T15:19:53;3.73;;;3.43;;
7571;SDS011;3827;49.928;8.548;2022-08-11T15:22:40;4.72;;;2.90;;
7571;SDS011;3827;49.928;8.548;2022-08-11T15:25:25;3.58;;;2.70;;
7571;SDS011;3827;49.928;8.548;2022-08-11T15:27:54;3.05;;;2.10;;
7571;SDS011;3827;49.928;8.548;2022-08-11T15:30:44;3.67;;;1.85;;
7571;SDS011;3827;49.928;8.548;2022-08-11T15:33:30;2.45;;;2.00;;
7571;SDS011;3827;49.928;8.548;2022-08-11T15:36:16;3.53;;;2.00;;
7571;SDS011;3827;49.928;8.548;2022-08-11T15:39:06;2.65;;;1.83;;
7571;SDS011;3827;49.928;8.548;2022-08-11T15:41:38;3.67;;;1.92;;
7571;SDS011;3827;49.928;8.548;2022-08-11T15:44:28;2.63;;;1.90;;
7571;SDS011;3827;49.928;8.548;2022-08-11T15:47:15;3.05;;;2.10;;
7571;SDS011;3827;49.928;8.548;2022-08-11T15:49:44;2.08;;;1.83;;
7571;SDS011;3827;49.928;8.548;2022-08-11T15:52:16;4.18;;;1.88;;
7571;SDS011;3827;49.928;8.548;2022-08-11T15:54:48;4.53;;;2.15;;
7571;SDS011;3827;49.928;8.548;2022-08-11T15:57:16;2.70;;;2.00;;
7571;SDS011;3827;49.928;8.548;2022-08-11T16:00:00;3.33;;;2.25;;
7571;SDS011;3827;49.928;8.548;2022-08-11T16:02:45;2.40;;;2.20;;
7571;SDS011;3827;49.928;8.548;2022-08-11T16:05:32;2.17;;;1.90;;
7571;SDS011;3827;49.928;8.548;2022-08-11T16:07:59;2.88;;;2.10;;
7571;SDS011;3827;49.928;8.548;2022-08-11T16:10:28;2.20;;;2.00;;
7571;SDS011;3827;49.928;8.548;2022-08-11T16:12:56;3.33;;;1.97;;
7571;SDS011;3827;49.928;8.548;2022-08-11T16:15:41;2.00;;;1.90;;
7571;SDS011;3827;49.928;8.548;2022-08-11T16:18:32;2.30;;;1.95;;
7571;SDS011;3827;49.928;8.548;2022-08-11T16:21:07;2.05;;;1.80;;
7571;SDS011;3827;49.928;8.548;2022-08-11T16:23:38;2.70;;;2.03;;
7571;SDS011;3827;49.928;8.548;2022-08-11T16:26:09;3.03;;;1.80;;
7571;SDS011;3827;49.928;8.548;2022-08-11T16:28:37;2.83;;;2.20;;
7571;SDS011;3827;49.928;8.548;2022-08-11T16:31:05;3.10;;;1.90;;
7571;SDS011;3827;49.928;8.548;2022-08-11T16:33:35;3.55;;;1.90;;
7571;SDS011;3827;49.928;8.548;2022-08-11T16:36:05;2.63;;;2.03;;
7571;SDS011;3827;49.928;8.548;2022-08-11T16:38:52;2.28;;;1.85;;
7571;SDS011;3827;49.928;8.548;2022-08-11T16:41:21;2.10;;;2.00;;
7571;SDS011;3827;49.928;8.548;2022-08-11T16:44:07;3.08;;;2.08;;
7571;SDS011;3827;49.928;8.548;2022-08-11T16:46:52;2.53;;;1.95;;
7571;SDS011;3827;49.928;8.548;2022-08-11T16:49:28;2.65;;;1.92;;
7571;SDS011;3827;49.928;8.548;2022-08-11T16:51:57;3.58;;;1.90;;
7571;SDS011;3827;49.928;8.548;2022-08-11T16:54:28;3.72;;;1.90;;
7571;SDS011;3827;49.928;8.548;2022-08-11T16:56:57;2.10;;;1.90;;
7571;SDS011;3827;49.928;8.548;2022-08-11T16:59:45;2.78;;;1.90;;
7571;SDS011;3827;49.928;8.548;2022-08-11T17:02:14;2.15;;;1.80;;
7571;SDS011;3827;49.928;8.548;2022-08-11T17:05:06;3.15;;;2.08;;
7571;SDS011;3827;49.928;8.548;2022-08-11T17:07:52;2.22;;;2.03;;
7571;SDS011;3827;49.928;8.548;2022-08-11T17:10:40;2.17;;;1.90;;
7571;SDS011;3827;49.928;8.548;2022-08-11T17:13:32;3.13;;;2.15;;